Woodbury, KY

11:26 AM CDT on June 03, 2015 (GMT -0500)
MIDCREST DR. | | Change Station
CLOSE
Current Station
Personal Weather Station
Location: Bowling Green, KY
Elevation: 686 ft
Nearby Weather Stations

Elev 686 ft 36.99 °N, 86.53 °W | Updated 18 seconds ago

Overcast
Overcast
69.3 °F
Feels Like 69.3 °F
N
0.0
Wind Variable Wind from ESE
Gusts 4.0 mph

Today
High -- | Low -- °F
--% Chance of Precip.
Yesterday
High -- | Low -- °F
Precip. -- in
5:27 AM 8:02 PM
Full, 99% visible
Pressure 30.05 in
Visibility 10.0 miles
Clouds Overcast 2100 ft
Dew Point 61 °F
Humidity 74%
Rainfall 0.00 in
Snow Depth Not available.
UV 3 out of 12
Pollen 6.70 out of 12
Air Quality Not available.
Flu Activity No Activity
METAR KBWG 031553Z AUTO 00000KT 10SM OVC021 18/12 A3006 RMK AO2 SLP176 T01830122

More Conditions Fewer Conditions

Pressure 30.05 in
Visibility 10.0 miles
Clouds Overcast 2100 ft
Dew Point 61 °F
Humidity 74%
Rainfall 0.00 in
Snow Depth Not available.
UV 3 out of 12
Pollen 6.70 out of 12
Air Quality Not available.
Flu Activity No Activity
METAR KBWG 031553Z AUTO 00000KT 10SM OVC021 18/12 A3006 RMK AO2 SLP176 T01830122

More Conditions Fewer Conditions

10-Day Weather Forecast

×

Almanac

Astronomy

Jun. 03, 2015 Rise Set
Actual Time
Civil Twilight
Nautical Twilight
Astronomical Twilight
Moon
Length of Visible Light
Length of Day
Tomorrow will be .
, % of the Moon is Illuminated

Today's Extremes

State Highs State Lows

Community

WunderPhotos

Upload Photos

1,826,246 photos uploaded!

WunderBlogs® & News

Nearby

Air Quality

  Air Quality AQ Index Pollutant
Not available.

Snow Depth

Station Depth Elevation

Earthquake Activity

City Distance Mag. Time & Date
Minimum magnitude displayed is 2.5.

Coastal Water Temperatures

Place Temperature

Stations

Nearby Weather Stations

Station Location Temp. Windchill Dew Point Humidity Wind Precip. Elev Updated Type